createdAt,value
2023-02-20T00:02:15.427Z,96529.94
2023-02-20T00:04:43.528Z,96533.41
2023-02-20T00:07:11.583Z,96529.72
2023-02-20T00:09:39.989Z,96520.50
2023-02-20T00:12:08.198Z,96522.13
2023-02-20T00:14:36.305Z,96519.25
2023-02-20T00:17:05.722Z,96515.97
2023-02-20T00:19:33.819Z,96507.00
2023-02-20T00:22:02.198Z,96515.31
2023-02-20T00:24:30.306Z,96511.44
2023-02-20T00:26:58.407Z,96505.91
2023-02-20T00:29:26.445Z,96505.09
2023-02-20T00:31:54.662Z,96496.13
2023-02-20T00:34:24.515Z,96497.16
2023-02-20T00:36:52.914Z,96504.88
2023-02-20T00:39:20.993Z,96500.59
2023-02-20T00:41:49.028Z,96499.59
2023-02-20T00:44:17.275Z,96498.31
2023-02-20T00:46:45.574Z,96502.03
2023-02-20T00:49:14.276Z,96493.81
2023-02-20T00:51:50.275Z,96498.09
2023-02-20T00:54:18.341Z,96495.44
2023-02-20T00:56:46.444Z,96494.88
2023-02-20T00:59:14.587Z,96493.25
2023-02-20T01:01:42.705Z,96496.72
2023-02-20T01:04:12.289Z,96504.44
2023-02-20T01:06:43.268Z,96500.97
2023-02-20T01:09:14.665Z,96498.31
2023-02-20T01:11:43.378Z,96500.75
2023-02-20T01:14:11.621Z,96505.63
2023-02-20T01:16:45.548Z,96516.63
2023-02-20T01:19:13.704Z,96516.38
2023-02-20T01:21:41.999Z,96517.44
2023-02-20T01:24:12.271Z,96520.09
2023-02-20T01:26:43.612Z,96511.31
2023-02-20T01:29:11.963Z,96517.88
2023-02-20T01:31:40.261Z,96517.06
2023-02-20T01:34:10.439Z,96502.16
2023-02-20T01:36:38.630Z,96499.72
2023-02-20T01:39:06.705Z,96500.75
2023-02-20T01:41:34.801Z,96494.06
2023-02-20T01:44:04.597Z,96494.88
2023-02-20T01:46:47.587Z,96493.25
2023-02-20T01:49:16.637Z,96486.53
2023-02-20T01:51:46.070Z,96488.38
2023-02-20T01:54:15.977Z,96493.47
2023-02-20T01:56:44.066Z,96492.66
2023-02-20T01:59:13.824Z,96494.88
2023-02-20T02:01:41.947Z,96485.06
2023-02-20T02:04:10.696Z,96480.34
2023-02-20T02:06:40.995Z,96483.81
2023-02-20T02:09:10.813Z,96486.47
2023-02-20T02:11:39.178Z,96485.66
2023-02-20T02:14:07.290Z,96484.84
2023-02-20T02:16:38.756Z,96489.34
2023-02-20T02:19:08.753Z,96485.88
2023-02-20T02:22:05.677Z,96479.19
2023-02-20T02:24:59.220Z,96482.41
2023-02-20T02:27:56.164Z,96479.75
2023-02-20T02:30:48.768Z,96482.84
2023-02-20T02:34:01.407Z,96474.91
2023-02-20T02:36:55.421Z,96468.41
2023-02-20T02:39:26.733Z,96462.28
2023-02-20T02:41:57.590Z,96456.38
2023-02-20T02:44:29.914Z,96461.31
2023-02-20T02:46:58.617Z,96457.06
2023-02-20T02:49:29.612Z,96452.97
2023-02-20T02:51:59.685Z,96456.09
2023-02-20T02:54:28.565Z,96449.97
2023-02-20T02:57:21.045Z,96452.66
2023-02-20T02:59:49.208Z,96447.22
2023-02-20T03:02:17.357Z,96441.53
2023-02-20T03:04:46.060Z,96437.09
2023-02-20T03:07:16.588Z,96433.69
2023-02-20T03:09:46.705Z,96424.13
2023-02-20T03:12:14.825Z,96411.31
2023-02-20T03:15:02.002Z,96413.56
2023-02-20T03:17:31.831Z,96412.31
2023-02-20T03:20:01.350Z,96424.69
2023-02-20T03:22:34.801Z,96429.19
2023-02-20T03:25:04.149Z,96431.06
2023-02-20T03:27:39.059Z,96441.66
2023-02-20T03:30:13.477Z,96432.66
2023-02-20T03:32:59.289Z,96432.06
2023-02-20T03:35:44.791Z,96440.84
2023-02-20T03:38:32.097Z,96430.66
2023-02-20T03:41:17.640Z,96441.47
2023-02-20T03:43:46.830Z,96446.97
2023-02-20T03:46:22.862Z,96451.47
2023-02-20T03:48:53.570Z,96451.69
2023-02-20T03:51:39.243Z,96443.97
2023-02-20T03:54:15.222Z,96446.63
2023-02-20T03:56:44.408Z,96453.97
2023-02-20T03:59:16.250Z,96449.69
2023-02-20T04:01:46.113Z,96442.75
2023-02-20T04:04:17.788Z,96438.69
2023-02-20T04:06:48.408Z,96438.34
2023-02-20T04:09:19.102Z,96429.38
2023-02-20T04:11:48.875Z,96433.84
2023-02-20T04:14:17.424Z,96434.06
2023-02-20T04:16:48.818Z,96431.63
2023-02-20T04:19:17.011Z,96425.50
2023-02-20T04:21:47.479Z,96432.84
2023-02-20T04:24:19.600Z,96440.78
2023-02-20T04:26:49.100Z,96424.91
2023-02-20T04:29:17.575Z,96438.16
2023-02-20T04:31:45.890Z,96447.72
2023-02-20T04:34:15.180Z,96452.81
2023-02-20T04:36:43.371Z,96457.50
2023-02-20T04:39:12.016Z,96460.38
2023-02-20T04:41:41.517Z,96460.16
2023-02-20T04:44:26.808Z,96461.19
2023-02-20T04:46:56.923Z,96463.81
2023-02-20T04:49:25.708Z,96454.25
2023-02-20T04:51:56.513Z,96458.53
2023-02-20T04:54:25.034Z,96455.28
2023-02-20T04:56:54.924Z,96461.03
2023-02-20T04:59:23.268Z,96476.91
2023-02-20T05:01:52.228Z,96469.56
2023-02-20T05:04:20.463Z,96467.13
2023-02-20T05:06:50.121Z,96475.28
2023-02-20T05:09:18.622Z,96471.81
2023-02-20T05:11:46.732Z,96478.94
2023-02-20T05:14:16.293Z,96472.25
2023-02-20T05:16:45.663Z,96477.75
2023-02-20T05:19:14.485Z,96474.06
2023-02-20T05:22:00.684Z,96463.13
2023-02-20T05:24:29.850Z,96460.88
2023-02-20T05:26:58.287Z,96462.50
2023-02-20T05:29:27.794Z,96465.38
2023-02-20T05:31:56.006Z,96476.78
2023-02-20T05:34:25.861Z,96482.06
2023-02-20T05:36:54.550Z,96477.56
2023-02-20T05:39:22.734Z,96464.75
2023-02-20T05:41:50.800Z,96458.03
2023-02-20T05:44:18.847Z,96456.00
2023-02-20T05:46:48.417Z,96451.72
2023-02-20T05:49:18.148Z,96437.91
2023-02-20T05:51:46.192Z,96439.75
2023-02-20T05:54:14.375Z,96427.31
2023-02-20T05:56:43.021Z,96425.91
2023-02-20T05:59:11.252Z,96425.91
2023-02-20T06:01:39.387Z,96432.22
2023-02-20T06:04:10.957Z,96429.56
2023-02-20T06:06:40.056Z,96419.19
2023-02-20T06:09:08.683Z,96402.28
2023-02-20T06:11:37.525Z,96401.69
2023-02-20T06:14:05.631Z,96396.59
2023-02-20T06:16:34.238Z,96398.00
2023-02-20T06:19:02.428Z,96389.25
2023-02-20T06:21:32.947Z,96392.50
2023-02-20T06:24:01.089Z,96390.66
2023-02-20T06:26:29.180Z,96403.91
2023-02-20T06:28:58.347Z,96397.59
2023-02-20T06:31:28.310Z,96422.03
2023-02-20T06:33:56.472Z,96420.34
2023-02-20T06:36:25.880Z,96423.19
2023-02-20T06:38:57.960Z,96417.69
2023-02-20T06:41:26.206Z,96427.69
2023-02-20T06:43:54.494Z,96451.09
2023-02-20T06:46:23.896Z,96442.34
2023-02-20T06:48:54.591Z,96439.69
2023-02-20T06:51:24.147Z,96430.72
2023-02-20T06:53:52.365Z,96435.22
2023-02-20T06:56:23.168Z,96446.19
2023-02-20T06:58:52.133Z,96438.25
2023-02-20T07:01:20.510Z,96427.66
2023-02-20T07:03:50.988Z,96410.16
2023-02-20T07:06:19.171Z,96424.78
2023-02-20T07:08:47.272Z,96432.31
2023-02-20T07:11:15.412Z,96421.50
2023-02-20T07:13:45.298Z,96428.44
2023-02-20T07:16:13.778Z,96423.34
2023-02-20T07:18:42.070Z,96422.91
2023-02-20T07:21:10.470Z,96413.94
2023-02-20T07:23:38.678Z,96412.69
2023-02-20T07:26:07.042Z,96425.72
2023-02-20T07:28:36.431Z,96416.75
2023-02-20T07:31:06.214Z,96413.69
2023-02-20T07:33:34.303Z,96419.78
2023-02-20T07:36:02.376Z,96416.91
2023-02-20T07:38:30.413Z,96418.09
2023-02-20T07:40:58.797Z,96400.75
2023-02-20T07:43:26.867Z,96398.69
2023-02-20T07:45:54.972Z,96403.56
2023-02-20T07:48:24.500Z,96401.50
2023-02-20T07:50:53.277Z,96393.97
2023-02-20T07:53:21.814Z,96389.63
2023-02-20T07:55:50.220Z,96384.25
2023-02-20T07:58:18.353Z,96409.44
2023-02-20T08:00:46.425Z,96389.00
2023-02-20T08:03:14.518Z,96398.94
2023-02-20T08:05:49.413Z,96408.44
2023-02-20T08:08:18.026Z,96410.25
2023-02-20T08:10:47.048Z,96400.56
2023-02-20T08:13:16.194Z,96392.19
2023-02-20T08:15:44.818Z,96388.03
2023-02-20T08:18:23.205Z,96381.94
2023-02-20T08:20:53.489Z,96391.97
2023-02-20T08:23:22.892Z,96393.53
2023-02-20T08:25:51.964Z,96372.31
2023-02-20T08:28:20.267Z,96392.03
2023-02-20T08:30:48.318Z,96378.25
2023-02-20T08:33:16.433Z,96380.16
2023-02-20T08:35:44.577Z,96370.63
2023-02-20T08:38:26.480Z,96366.63
2023-02-20T08:40:54.505Z,96357.19
2023-02-20T08:43:22.655Z,96352.22
2023-02-20T08:45:50.756Z,96350.75
2023-02-20T08:48:19.431Z,96352.06
2023-02-20T08:50:48.153Z,96351.75
2023-02-20T08:53:16.386Z,96350.28
2023-02-20T08:55:45.920Z,96357.34
2023-02-20T08:58:14.006Z,96357.13
2023-02-20T09:00:42.144Z,96348.03
2023-02-20T09:03:10.205Z,96347.09
2023-02-20T09:05:39.402Z,96324.16
2023-02-20T09:08:07.614Z,96322.19
2023-02-20T09:10:35.676Z,96307.44
2023-02-20T09:13:05.332Z,96307.22
2023-02-20T09:15:38.684Z,96318.22
2023-02-20T09:18:09.520Z,96309.34
2023-02-20T09:20:38.153Z,96314.44
2023-02-20T09:23:06.224Z,96317.44
2023-02-20T09:25:34.417Z,96320.56
2023-02-20T09:28:02.471Z,96329.78
2023-02-20T09:30:32.274Z,96331.06
2023-02-20T09:33:00.375Z,96339.38
2023-02-20T09:35:29.462Z,96330.81
2023-02-20T09:37:57.606Z,96324.16
2023-02-20T09:40:26.715Z,96324.94
2023-02-20T09:43:15.969Z,96320.56
2023-02-20T09:45:49.400Z,96319.16
2023-02-20T09:48:24.988Z,96320.34
2023-02-20T09:50:54.780Z,96316.16
2023-02-20T09:53:25.237Z,96324.13
2023-02-20T09:55:53.675Z,96333.81
2023-02-20T09:58:24.636Z,96319.84
2023-02-20T10:00:54.107Z,96313.59
2023-02-20T10:03:25.836Z,96317.63
2023-02-20T10:05:53.930Z,96302.91
2023-02-20T10:08:23.617Z,96304.16
2023-02-20T10:10:52.128Z,96302.16
2023-02-20T10:13:31.974Z,96287.19
2023-02-20T10:16:04.734Z,96284.31
2023-02-20T10:18:36.250Z,96292.88
2023-02-20T10:21:15.389Z,96283.72
2023-02-20T10:23:49.357Z,96283.66
2023-02-20T10:26:26.917Z,96280.84
2023-02-20T10:28:55.399Z,96281.97
2023-02-20T10:31:30.650Z,96279.97
2023-02-20T10:34:00.744Z,96281.47
2023-02-20T10:36:30.563Z,96273.72
2023-02-20T10:39:02.178Z,96284.88
2023-02-20T10:41:31.839Z,96276.19
2023-02-20T10:44:02.458Z,96282.75
2023-02-20T10:46:47.780Z,96272.06
2023-02-20T10:49:18.865Z,96272.69
2023-02-20T10:51:47.533Z,96275.91
2023-02-20T10:54:17.971Z,96283.16
2023-02-20T10:56:48.301Z,96267.97
2023-02-20T10:59:19.307Z,96263.03
2023-02-20T11:01:56.968Z,96253.50
2023-02-20T11:04:26.198Z,96256.50
2023-02-20T11:06:56.398Z,96246.78
2023-02-20T11:09:25.560Z,96249.50
2023-02-20T11:11:54.212Z,96243.84
2023-02-20T11:14:38.972Z,96230.03
2023-02-20T11:17:12.558Z,96230.28
2023-02-20T11:19:42.926Z,96238.50
2023-02-20T11:22:11.390Z,96223.91
2023-02-20T11:24:39.934Z,96219.00
2023-02-20T11:27:10.576Z,96225.72
2023-02-20T11:29:41.672Z,96216.69
2023-02-20T11:32:19.457Z,96209.72
2023-02-20T11:34:47.854Z,96217.75
2023-02-20T11:37:15.925Z,96220.59
2023-02-20T11:39:47.452Z,96216.31
2023-02-20T11:42:17.441Z,96216.13
2023-02-20T11:44:45.671Z,96198.75
2023-02-20T11:47:24.629Z,96198.41
2023-02-20T11:50:19.245Z,96198.78
2023-02-20T11:52:59.445Z,96193.19
2023-02-20T11:55:29.599Z,96199.03
2023-02-20T11:57:57.817Z,96193.75
2023-02-20T12:00:26.436Z,96192.38
2023-02-20T12:02:57.412Z,96184.13
2023-02-20T12:05:38.973Z,96191.31
2023-02-20T12:08:35.249Z,96185.84
2023-02-20T12:11:04.570Z,96164.75
2023-02-20T12:13:32.639Z,96163.69
2023-02-20T12:16:03.847Z,96162.47
2023-02-20T12:18:42.256Z,96175.34
2023-02-20T12:21:15.554Z,96168.88
2023-02-20T12:23:49.437Z,96177.31
2023-02-20T12:26:26.406Z,96160.25
2023-02-20T12:29:00.644Z,96171.50
2023-02-20T12:31:37.285Z,96162.72
2023-02-20T12:34:12.611Z,96172.72
2023-02-20T12:36:41.366Z,96161.28
2023-02-20T12:39:17.040Z,96154.31
2023-02-20T12:41:51.173Z,96154.91
2023-02-20T12:44:31.403Z,96149.84
2023-02-20T12:47:03.893Z,96145.63
2023-02-20T12:49:49.187Z,96150.69
2023-02-20T12:52:36.002Z,96138.09
2023-02-20T12:55:10.178Z,96133.31
2023-02-20T12:57:43.579Z,96115.34
2023-02-20T13:00:22.395Z,96113.16
2023-02-20T13:02:51.490Z,96103.78
2023-02-20T13:05:21.709Z,96101.63
2023-02-20T13:07:52.858Z,96089.91
2023-02-20T13:10:23.437Z,96089.66
2023-02-20T13:12:51.573Z,96091.50
2023-02-20T13:15:38.425Z,96080.53
2023-02-20T13:18:10.177Z,96072.50
2023-02-20T13:20:44.516Z,96071.66
2023-02-20T13:23:30.453Z,96074.88
2023-02-20T13:25:58.641Z,96057.47
2023-02-20T13:28:43.042Z,96053.50
2023-02-20T13:31:15.855Z,96044.41
2023-02-20T13:33:44.621Z,96048.19
2023-02-20T13:36:42.770Z,96054.31
2023-02-20T13:39:42.856Z,96044.38
2023-02-20T13:42:33.232Z,96051.31
2023-02-20T13:45:02.533Z,96049.69
2023-02-20T13:47:40.838Z,96039.47
2023-02-20T13:50:32.932Z,96044.78
2023-02-20T13:53:06.338Z,96046.06
2023-02-20T13:55:34.587Z,96039.94
2023-02-20T13:58:22.577Z,96045.50
2023-02-20T14:00:52.474Z,96035.84
2023-02-20T14:03:23.464Z,96046.03
2023-02-20T14:06:13.227Z,96046.03
2023-02-20T14:08:43.806Z,96041.72
2023-02-20T14:11:12.621Z,96039.88
2023-02-20T14:13:42.871Z,96049.75
2023-02-20T14:16:28.618Z,96035.31
2023-02-20T14:18:58.770Z,96041.47
2023-02-20T14:21:26.824Z,96037.50
2023-02-20T14:23:56.309Z,96035.31
2023-02-20T14:26:25.424Z,96020.34
2023-02-20T14:28:56.596Z,96017.38
2023-02-20T14:31:25.756Z,96017.66
2023-02-20T14:33:56.986Z,96029.94
2023-02-20T14:37:03.795Z,96019.03
2023-02-20T14:39:40.393Z,96020.09
2023-02-20T14:42:15.419Z,96003.56
2023-02-20T14:44:43.564Z,96003.31
2023-02-20T14:47:13.202Z,95988.66
2023-02-20T14:49:41.243Z,95981.16
2023-02-20T14:52:14.775Z,95984.94
2023-02-20T14:54:44.879Z,95986.84
2023-02-20T14:57:14.439Z,96002.34
2023-02-20T14:59:43.086Z,96001.28
2023-02-20T15:02:31.286Z,96005.03
2023-02-20T15:05:03.953Z,96003.97
2023-02-20T15:07:32.088Z,96011.19
2023-02-20T15:10:05.050Z,96010.94
2023-02-20T15:12:35.603Z,96008.28
2023-02-20T15:15:05.619Z,96002.94
2023-02-20T15:17:33.997Z,96028.88
2023-02-20T15:20:02.369Z,96022.22
2023-02-20T15:22:32.620Z,96006.16
2023-02-20T15:25:32.115Z,96013.94
2023-02-20T15:28:08.119Z,96013.94
2023-02-20T15:30:36.363Z,96032.09
2023-02-20T15:33:04.537Z,96023.81
2023-02-20T15:35:33.081Z,96018.69
2023-02-20T15:38:02.640Z,96017.88
2023-02-20T15:40:33.149Z,96033.59
2023-02-20T15:43:04.756Z,96022.63
2023-02-20T15:45:37.759Z,96008.69
2023-02-20T15:48:06.250Z,96022.81
2023-02-20T15:50:34.359Z,96015.31
2023-02-20T15:53:02.970Z,96025.41
2023-02-20T15:55:34.485Z,96020.00
2023-02-20T15:58:04.694Z,96026.63
2023-02-20T16:00:35.124Z,96021.84
2023-02-20T16:03:03.589Z,96012.41
2023-02-20T16:05:32.024Z,96007.56
2023-02-20T16:08:00.290Z,96000.28
2023-02-20T16:10:28.451Z,95999.97
2023-02-20T16:12:58.491Z,95994.53
2023-02-20T16:15:26.680Z,96003.53
2023-02-20T16:17:55.050Z,95998.66
2023-02-20T16:20:24.427Z,95993.34
2023-02-20T16:22:52.806Z,95998.13
2023-02-20T16:25:21.881Z,95994.13
2023-02-20T16:27:52.570Z,95979.91
2023-02-20T16:30:32.702Z,95998.75
2023-02-20T16:33:02.416Z,95997.59
2023-02-20T16:35:30.612Z,95996.50
2023-02-20T16:37:58.789Z,95994.03
2023-02-20T16:40:26.922Z,95986.03
2023-02-20T16:42:55.028Z,96000.97
2023-02-20T16:45:24.786Z,95999.25
2023-02-20T16:47:53.570Z,95997.59
2023-02-20T16:50:23.763Z,96003.38
2023-02-20T16:52:52.128Z,95995.84
2023-02-20T16:55:21.165Z,96013.69
2023-02-20T16:57:49.263Z,96016.81
2023-02-20T17:00:18.652Z,96013.09
2023-02-20T17:02:48.237Z,96010.75
2023-02-20T17:05:16.415Z,96009.69
2023-02-20T17:07:44.559Z,96021.25
2023-02-20T17:10:12.642Z,96028.50
2023-02-20T17:12:41.103Z,96034.09
2023-02-20T17:15:10.027Z,96033.03
2023-02-20T17:17:38.680Z,96031.69
2023-02-20T17:20:11.073Z,96022.16
2023-02-20T17:22:39.678Z,96031.00
2023-02-20T17:25:08.153Z,96031.63
2023-02-20T17:27:36.276Z,96036.66
2023-02-20T17:30:05.050Z,96041.44
2023-02-20T17:32:33.894Z,96039.00
2023-02-20T17:35:02.108Z,96049.44
2023-02-20T17:37:34.316Z,96053.94
2023-02-20T17:40:02.920Z,96051.59
2023-02-20T17:42:31.684Z,96062.75
2023-02-20T17:45:00.296Z,96064.88
2023-02-20T17:47:28.443Z,96065.63
2023-02-20T17:49:56.853Z,96067.97
2023-02-20T17:52:24.974Z,96064.25
2023-02-20T17:54:56.149Z,96067.97
2023-02-20T17:57:24.432Z,96061.91
2023-02-20T17:59:52.482Z,96044.59
2023-02-20T18:02:20.577Z,96037.78
2023-02-20T18:04:48.731Z,96034.22
2023-02-20T18:07:17.935Z,96032.34
2023-02-20T18:09:46.342Z,96033.16
2023-02-20T18:12:15.802Z,96043.53
2023-02-20T18:14:45.032Z,96029.34
2023-02-20T18:17:13.156Z,96030.66
2023-02-20T18:19:41.282Z,96037.84
2023-02-20T18:22:09.994Z,96041.88
2023-02-20T18:24:38.165Z,96037.03
2023-02-20T18:27:06.496Z,96040.50
2023-02-20T18:29:36.063Z,96037.09
2023-02-20T18:32:04.230Z,96040.25
2023-02-20T18:34:32.462Z,96045.28
2023-02-20T18:37:00.840Z,96044.50
2023-02-20T18:39:29.016Z,96044.41
2023-02-20T18:41:57.945Z,96046.75
2023-02-20T18:44:26.100Z,96043.28
2023-02-20T18:46:55.779Z,96036.19
2023-02-20T18:49:24.232Z,96034.88
2023-02-20T18:51:52.311Z,96033.84
2023-02-20T18:54:22.321Z,96034.56
2023-02-20T18:56:51.434Z,96038.22
2023-02-20T18:59:19.613Z,96043.78
2023-02-20T19:01:47.774Z,96036.28
2023-02-20T19:04:17.929Z,96030.16
2023-02-20T19:06:46.973Z,96026.09
2023-02-20T19:09:16.146Z,96015.16
2023-02-20T19:11:44.316Z,96020.25
2023-02-20T19:14:12.457Z,96020.72
2023-02-20T19:16:40.911Z,96030.03
2023-02-20T19:19:09.110Z,96026.25
2023-02-20T19:21:38.618Z,96028.59
2023-02-20T19:24:08.990Z,96025.22
2023-02-20T19:26:37.150Z,96025.69
2023-02-20T19:29:05.270Z,96035.53
2023-02-20T19:31:33.796Z,96035.53
2023-02-20T19:34:01.934Z,96039.50
2023-02-20T19:36:30.030Z,96040.56
2023-02-20T19:38:59.536Z,96035.19
2023-02-20T19:41:27.650Z,96039.94
2023-02-20T19:43:55.997Z,96036.72
2023-02-20T19:46:24.862Z,96035.09
2023-02-20T19:48:52.956Z,96037.22
2023-02-20T19:51:21.427Z,96033.81
2023-02-20T19:53:49.597Z,96039.38
2023-02-20T19:56:19.098Z,96046.25
2023-02-20T19:58:47.519Z,96039.81
2023-02-20T20:01:16.266Z,96039.31
2023-02-20T20:03:44.472Z,96032.44
2023-02-20T20:06:13.029Z,96036.16
2023-02-20T20:09:01.771Z,96038.81
2023-02-20T20:11:31.046Z,96035.34
2023-02-20T20:13:59.266Z,96034.81
2023-02-20T20:16:27.655Z,96034.72
2023-02-20T20:18:56.053Z,96040.81
2023-02-20T20:21:24.197Z,96044.50
2023-02-20T20:23:54.037Z,96038.38
2023-02-20T20:26:25.791Z,96033.53
2023-02-20T20:28:55.608Z,96032.97
2023-02-20T20:31:24.484Z,96036.44
2023-02-20T20:33:52.830Z,96040.66
2023-02-20T20:36:20.929Z,96046.47
2023-02-20T20:38:49.614Z,96036.94
2023-02-20T20:41:17.691Z,96048.09
2023-02-20T20:43:46.005Z,96040.66
2023-02-20T20:46:15.686Z,96043.56
2023-02-20T20:48:43.826Z,96044.03
2023-02-20T20:51:12.914Z,96044.84
2023-02-20T20:53:41.308Z,96043.47
2023-02-20T20:56:10.083Z,96042.38
2023-02-20T20:58:38.299Z,96043.66
2023-02-20T21:01:06.603Z,96040.44
2023-02-20T21:03:36.324Z,96041.75
2023-02-20T21:06:04.433Z,96035.91
2023-02-20T21:08:33.815Z,96038.81
2023-02-20T21:11:01.998Z,96031.63
2023-02-20T21:13:30.116Z,96032.16
2023-02-20T21:15:58.213Z,96032.94
2023-02-20T21:18:26.674Z,96037.47
2023-02-20T21:20:56.151Z,96040.19
2023-02-20T21:23:24.297Z,96035.19
2023-02-20T21:25:52.375Z,96027.69
2023-02-20T21:28:20.461Z,96021.56
2023-02-20T21:30:48.885Z,96023.16
2023-02-20T21:33:17.025Z,96023.50
2023-02-20T21:35:45.086Z,96013.94
2023-02-20T21:38:14.551Z,96027.25
2023-02-20T21:40:42.735Z,96031.28
2023-02-20T21:43:28.998Z,96033.16
2023-02-20T21:45:57.263Z,96027.25
2023-02-20T21:48:25.640Z,96034.72
2023-02-20T21:50:53.840Z,96031.47
2023-02-20T21:53:23.455Z,96033.09
2023-02-20T21:55:51.776Z,96020.03
2023-02-20T21:58:25.168Z,96020.50
2023-02-20T22:00:52.051Z,96013.81
2023-02-20T22:03:18.992Z,96005.53
2023-02-20T22:05:45.834Z,95994.31
2023-02-20T22:08:32.580Z,95992.63
2023-02-20T22:11:20.513Z,95995.69
2023-02-20T22:14:05.844Z,95995.63
2023-02-20T22:16:51.338Z,95993.16
2023-02-20T22:19:36.606Z,95987.97
2023-02-20T22:22:21.901Z,95998.53
2023-02-20T22:25:07.716Z,96003.22
2023-02-20T22:27:54.631Z,96001.84
2023-02-20T22:30:39.833Z,95992.50
2023-02-20T22:33:25.768Z,95994.69
2023-02-20T22:36:12.862Z,95993.78
2023-02-20T22:38:58.355Z,95990.81
2023-02-20T22:41:43.980Z,95992.66
2023-02-20T22:44:30.807Z,95986.94
2023-02-20T22:47:16.082Z,95988.28
2023-02-20T22:50:01.691Z,95984.28
2023-02-20T22:52:47.480Z,95976.06
2023-02-20T22:55:33.078Z,95979.50
2023-02-20T22:58:18.415Z,95981.47
2023-02-20T23:01:05.644Z,95965.25
2023-02-20T23:03:51.038Z,95965.25
2023-02-20T23:06:37.577Z,95966.63
2023-02-20T23:09:23.418Z,95971.38
2023-02-20T23:12:08.757Z,95987.97
2023-02-20T23:14:53.944Z,95979.53
2023-02-20T23:17:41.340Z,95984.34
2023-02-20T23:20:28.565Z,95991.94
2023-02-20T23:23:14.305Z,96007.88
2023-02-20T23:25:59.532Z,96018.53
2023-02-20T23:28:44.731Z,96023.03
2023-02-20T23:31:30.346Z,96018.53
2023-02-20T23:34:17.233Z,96025.00
2023-02-20T23:37:04.844Z,96035.00
2023-02-20T23:39:50.080Z,96028.69
2023-02-20T23:42:35.844Z,96029.03
2023-02-20T23:45:22.180Z,96022.09
2023-02-20T23:48:07.867Z,96021.59
2023-02-20T23:50:54.860Z,96026.94
2023-02-20T23:53:40.144Z,96016.59
2023-02-20T23:56:26.162Z,96014.50
2023-02-20T23:59:11.753Z,96014.59
